createdAt,value
2022-09-23T00:02:43.014Z,8.07
2022-09-23T00:06:44.697Z,10.07
2022-09-23T00:10:46.378Z,12.93
2022-09-23T00:14:48.074Z,10.18
2022-09-23T00:18:50.905Z,9.75
2022-09-23T00:22:53.462Z,11.73
2022-09-23T00:26:55.122Z,8.57
2022-09-23T00:30:57.085Z,11.60
2022-09-23T00:34:58.813Z,8.07
2022-09-23T00:39:00.678Z,9.55
2022-09-23T00:43:02.357Z,12.10
2022-09-23T00:47:04.191Z,10.10
2022-09-23T00:51:09.125Z,12.25
2022-09-23T00:55:16.030Z,9.85
2022-09-23T00:59:17.826Z,7.50
2022-09-23T01:03:19.939Z,11.13
2022-09-23T01:07:21.954Z,10.98
2022-09-23T01:11:45.422Z,10.20
2022-09-23T01:15:53.480Z,14.88
2022-09-23T01:20:15.393Z,10.80
2022-09-23T01:24:46.295Z,11.82
2022-09-23T01:29:24.413Z,12.70
2022-09-23T01:33:47.963Z,10.68
2022-09-23T01:38:10.853Z,11.18
2022-09-23T01:42:17.743Z,8.40
2022-09-23T01:46:52.202Z,10.75
2022-09-23T01:51:02.675Z,10.30
2022-09-23T01:55:22.311Z,9.15
2022-09-23T01:59:29.875Z,10.98
2022-09-23T02:03:37.269Z,11.45
2022-09-23T02:07:44.184Z,7.83
2022-09-23T02:11:48.820Z,12.57
2022-09-23T02:15:54.509Z,13.05
2022-09-23T02:20:01.840Z,8.57
2022-09-23T02:24:09.646Z,8.73
2022-09-23T02:28:17.001Z,9.52
2022-09-23T02:32:36.327Z,10.20
2022-09-23T02:37:01.879Z,10.02
2022-09-23T02:41:23.832Z,8.25
2022-09-23T02:45:25.809Z,8.82
2022-09-23T02:49:29.614Z,10.13
2022-09-23T02:53:35.188Z,11.85
2022-09-23T02:57:36.906Z,10.25
2022-09-23T03:02:02.193Z,9.32
2022-09-23T03:06:26.497Z,9.02
2022-09-23T03:10:42.105Z,9.30
2022-09-23T03:15:07.470Z,8.00
2022-09-23T03:19:23.557Z,10.38
2022-09-23T03:23:31.469Z,7.05
2022-09-23T03:27:36.596Z,9.90
2022-09-23T03:31:40.202Z,10.40
2022-09-23T03:36:08.798Z,11.32
2022-09-23T03:40:19.460Z,14.15
2022-09-23T03:44:21.917Z,11.23
2022-09-23T03:48:26.658Z,9.77
2022-09-23T03:52:28.648Z,8.30
2022-09-23T03:56:30.311Z,10.40
2022-09-23T04:00:31.999Z,16.08
2022-09-23T04:04:36.668Z,9.10
2022-09-23T04:08:38.331Z,16.40
2022-09-23T04:12:40.084Z,11.10
2022-09-23T04:16:41.801Z,9.77
2022-09-23T04:20:43.534Z,9.30
2022-09-23T04:24:45.206Z,12.32
2022-09-23T04:28:46.860Z,7.68
2022-09-23T04:32:48.570Z,12.70
2022-09-23T04:36:50.852Z,12.20
2022-09-23T04:40:52.574Z,7.85
2022-09-23T04:44:54.221Z,10.43
2022-09-23T04:48:55.901Z,12.52
2022-09-23T04:52:57.548Z,11.02
2022-09-23T04:56:59.399Z,11.00
2022-09-23T05:01:24.878Z,9.48
2022-09-23T05:05:27.773Z,10.80
2022-09-23T05:09:29.497Z,8.48
2022-09-23T05:13:32.698Z,10.88
2022-09-23T05:17:34.339Z,9.27
2022-09-23T05:21:37.860Z,11.85
2022-09-23T05:25:42.547Z,10.85
2022-09-23T05:29:44.641Z,9.50
2022-09-23T05:33:49.233Z,9.20
2022-09-23T05:37:50.861Z,10.23
2022-09-23T05:41:53.877Z,10.18
2022-09-23T05:46:08.359Z,8.50
2022-09-23T05:50:10.802Z,8.15
2022-09-23T10:31:08.684Z,10.15
2022-09-23T10:35:11.414Z,8.25
2022-09-23T10:39:31.774Z,13.27
2022-09-23T10:44:11.742Z,11.73
2022-09-23T10:48:40.847Z,13.38
2022-09-23T10:52:49.190Z,10.15
2022-09-23T10:57:43.569Z,10.88
2022-09-23T11:02:09.743Z,9.13
2022-09-23T11:06:29.797Z,9.30
2022-09-23T11:10:49.847Z,15.93
2022-09-23T11:15:12.310Z,9.68
2022-09-23T11:19:53.914Z,13.90
2022-09-23T11:24:28.186Z,7.40
2022-09-23T11:28:45.392Z,9.40
2022-09-23T11:33:14.386Z,9.27
2022-09-23T11:37:22.041Z,9.15
2022-09-23T11:41:31.422Z,8.98
2022-09-23T11:45:52.093Z,8.43
2022-09-23T11:50:04.441Z,11.88
2022-09-23T11:54:23.203Z,11.43
2022-09-23T11:58:31.783Z,9.35
2022-09-23T12:02:40.024Z,8.15
2022-09-23T12:06:48.046Z,11.38
2022-09-23T12:11:06.559Z,12.73
2022-09-23T12:19:31.161Z,9.38
2022-09-23T12:23:49.550Z,10.63
2022-09-23T12:31:57.086Z,9.90
2022-09-23T12:36:09.541Z,9.48
2022-09-23T12:40:23.999Z,8.93
2022-09-23T12:44:39.417Z,15.57
2022-09-23T12:48:59.100Z,15.07
2022-09-23T12:53:35.845Z,9.82
2022-09-23T12:57:37.491Z,6.75
2022-09-23T13:01:39.782Z,8.85
2022-09-23T13:06:11.850Z,9.88
2022-09-23T13:10:30.941Z,9.13
2022-09-23T13:14:34.128Z,7.70
2022-09-23T13:18:54.698Z,7.03
2022-09-23T13:22:56.306Z,11.95
2022-09-23T13:27:26.711Z,6.35
2022-09-23T13:31:28.606Z,9.60
2022-09-23T13:35:37.493Z,10.15
2022-09-23T13:39:39.160Z,6.13
2022-09-23T13:43:45.353Z,9.57
2022-09-23T13:47:48.937Z,10.82
2022-09-23T13:51:53.477Z,7.30
2022-09-23T13:56:04.036Z,12.30
2022-09-23T14:00:21.272Z,9.75
2022-09-23T14:04:25.406Z,8.35
2022-09-23T14:08:29.348Z,10.30
2022-09-23T14:12:31.065Z,8.07
2022-09-23T14:16:38.229Z,6.32
2022-09-23T14:20:50.338Z,14.07
2022-09-23T14:24:52.935Z,7.95
2022-09-23T14:28:54.877Z,9.10
2022-09-23T14:32:57.072Z,14.57
2022-09-23T14:37:32.018Z,13.05
2022-09-23T14:41:39.863Z,9.65
2022-09-23T14:45:45.275Z,7.70
2022-09-23T14:50:11.203Z,9.20
2022-09-23T14:54:41.524Z,8.75
2022-09-23T14:58:50.993Z,12.02
2022-09-23T15:03:11.688Z,9.85
2022-09-23T15:07:19.077Z,9.70
2022-09-23T15:11:23.623Z,12.63
2022-09-23T15:15:30.344Z,11.27
2022-09-23T15:19:35.435Z,12.50
2022-09-23T15:23:51.821Z,19.77
2022-09-23T15:27:59.421Z,12.93
2022-09-23T15:32:01.380Z,14.23
2022-09-23T15:36:03.512Z,18.45
2022-09-23T15:40:06.279Z,15.55
2022-09-23T15:44:21.704Z,17.25
2022-09-23T15:48:27.509Z,16.02
2022-09-23T15:52:29.210Z,15.93
2022-09-23T15:56:30.886Z,17.55
2022-09-23T16:00:34.850Z,17.88
2022-09-23T16:04:37.194Z,17.45
2022-09-23T16:08:39.363Z,19.60
2022-09-23T16:12:41.430Z,17.05
2022-09-23T16:16:45.228Z,17.95
2022-09-23T16:20:47.764Z,12.02
2022-09-23T16:24:49.480Z,9.77
2022-09-23T16:28:54.134Z,7.82
2022-09-23T16:32:56.562Z,7.88
2022-09-23T16:36:58.315Z,10.50
2022-09-23T16:41:00.832Z,9.75
2022-09-23T16:45:02.752Z,9.27
2022-09-23T16:49:05.151Z,7.85
2022-09-23T16:53:06.952Z,10.73
2022-09-23T16:57:09.770Z,9.48
2022-09-23T17:01:42.683Z,12.02
2022-09-23T17:05:46.794Z,10.23
2022-09-23T17:09:48.949Z,9.77
2022-09-23T17:13:51.657Z,11.95
2022-09-23T17:17:53.321Z,9.02
2022-09-23T17:21:55.082Z,11.73
2022-09-23T17:25:57.117Z,12.15
2022-09-23T17:29:59.052Z,9.23
2022-09-23T17:34:01.081Z,9.57
2022-09-23T17:38:02.747Z,9.32
2022-09-23T17:42:05.107Z,12.23
2022-09-23T17:46:12.968Z,18.52
2022-09-23T17:50:15.007Z,16.38
2022-09-23T17:54:16.785Z,16.60
2022-09-23T17:58:18.964Z,15.82
2022-09-23T18:02:23.635Z,21.52
2022-09-23T18:06:28.290Z,25.02
2022-09-23T18:10:30.776Z,25.17
2022-09-23T18:14:32.447Z,24.63
2022-09-23T18:18:34.185Z,26.02
2022-09-23T18:22:35.823Z,21.90
2022-09-23T18:26:38.319Z,28.02
2022-09-23T18:30:40.238Z,26.75
2022-09-23T18:34:41.862Z,34.22
2022-09-23T18:38:43.591Z,30.38
2022-09-23T18:42:45.229Z,30.20
2022-09-23T18:46:46.883Z,27.50
2022-09-23T18:50:49.363Z,29.45
2022-09-23T18:54:55.085Z,24.17
2022-09-23T18:58:56.915Z,18.38
2022-09-23T19:02:58.721Z,16.30
2022-09-23T19:07:00.473Z,13.65
2022-09-23T19:11:04.053Z,12.80
2022-09-23T19:15:06.170Z,12.43
2022-09-23T19:19:08.689Z,14.80
2022-09-23T19:23:10.359Z,16.20
2022-09-23T19:27:12.024Z,19.52
2022-09-23T19:31:25.294Z,14.48
2022-09-23T19:35:27.326Z,15.00
2022-09-23T19:39:31.634Z,11.75
2022-09-23T19:43:36.973Z,11.00
2022-09-23T19:47:39.503Z,9.85
2022-09-23T19:51:41.449Z,12.27
2022-09-23T19:55:44.370Z,13.40
2022-09-23T19:59:46.128Z,10.40
2022-09-23T20:03:48.235Z,9.13
2022-09-23T20:07:50.332Z,9.88
2022-09-23T20:11:52.215Z,11.80
2022-09-23T20:15:53.927Z,7.70
2022-09-23T20:19:55.643Z,9.15
2022-09-23T20:23:58.073Z,10.90
2022-09-23T20:27:59.720Z,8.75
2022-09-23T20:32:01.595Z,8.23
2022-09-23T20:36:03.402Z,7.95
2022-09-23T20:40:05.763Z,8.80
2022-09-23T20:44:12.466Z,9.65
2022-09-23T20:48:14.598Z,7.72
2022-09-23T20:52:17.965Z,9.55
2022-09-23T20:56:21.382Z,12.18
2022-09-23T21:00:23.077Z,14.57
2022-09-23T21:04:25.535Z,16.77
2022-09-23T21:08:27.311Z,17.52
2022-09-23T21:12:29.027Z,18.15
2022-09-23T21:16:31.039Z,16.38
2022-09-23T21:20:32.903Z,17.20
2022-09-23T21:25:12.126Z,19.83
2022-09-23T21:28:59.684Z,18.30
2022-09-23T21:33:01.997Z,19.80
2022-09-23T21:37:04.309Z,22.90
2022-09-23T21:41:09.055Z,18.23
2022-09-23T21:45:11.119Z,20.40
2022-09-23T21:49:13.302Z,21.33
2022-09-23T21:53:17.851Z,21.27
2022-09-23T21:57:19.543Z,25.45
2022-09-23T22:01:24.114Z,17.63
2022-09-23T22:05:25.924Z,19.65
2022-09-23T22:09:27.677Z,21.13
2022-09-23T22:13:29.427Z,21.90
2022-09-23T22:17:33.185Z,23.27
2022-09-23T22:21:36.733Z,20.15
2022-09-23T22:25:38.474Z,19.05
2022-09-23T22:29:58.685Z,24.00
2022-09-23T22:34:00.413Z,23.65
2022-09-23T22:38:02.127Z,25.33
2022-09-23T22:42:05.432Z,26.63
2022-09-23T22:46:07.264Z,25.33
2022-09-23T22:50:09.819Z,24.65
2022-09-23T22:54:11.979Z,22.88
2022-09-23T22:58:31.035Z,23.55
2022-09-23T23:02:34.076Z,25.25
2022-09-23T23:06:37.152Z,25.45
2022-09-23T23:10:38.855Z,24.95
2022-09-23T23:14:40.797Z,23.95
2022-09-23T23:18:43.430Z,23.15
2022-09-23T23:22:45.123Z,45.80
2022-09-23T23:26:47.577Z,19.33
2022-09-23T23:30:49.256Z,20.25
2022-09-23T23:34:50.936Z,25.15
2022-09-23T23:38:52.703Z,19.00
2022-09-23T23:42:54.599Z,19.55
2022-09-23T23:46:56.340Z,18.00
2022-09-23T23:50:59.507Z,20.27
2022-09-23T23:55:01.204Z,15.68
2022-09-23T23:59:03.588Z,18.80
